createdAt,value
2017-06-05T20:46:42.757Z,1002.15
2017-06-05T20:47:44.408Z,1002.39
2017-06-05T20:48:46.098Z,1002.48
2017-06-05T20:49:47.753Z,1002.48
2017-06-05T20:50:49.417Z,1002.46
2017-06-05T20:51:51.111Z,1002.44
2017-06-05T20:52:52.828Z,1002.38
2017-06-05T20:53:54.463Z,1002.37
2017-06-05T20:54:56.124Z,1002.37
2017-06-05T20:55:57.768Z,1002.35
2017-06-05T20:56:59.491Z,1002.31
2017-06-05T20:58:01.073Z,1002.26
2017-06-05T20:59:02.740Z,1002.23
2017-06-05T21:00:04.360Z,1002.21
2017-06-05T21:01:05.985Z,1002.18
2017-06-05T21:02:07.640Z,1002.19
2017-06-05T21:03:09.332Z,1002.13
2017-06-05T21:04:10.975Z,1002.09
2017-06-05T21:05:12.657Z,1002.12
2017-06-05T21:06:14.334Z,1002.11
2017-06-05T21:07:16.019Z,1002.06
2017-06-05T21:08:17.713Z,1002.03
2017-06-05T21:09:19.415Z,1002.00
2017-06-05T21:10:21.066Z,1001.98
2017-06-05T21:11:22.802Z,1001.94
2017-06-05T21:12:24.500Z,1001.96
2017-06-05T21:13:26.155Z,1001.93
2017-06-05T21:14:27.842Z,1001.91
2017-06-05T21:15:29.497Z,1001.88
2017-06-05T21:16:31.185Z,1001.88
2017-06-05T21:17:32.910Z,1001.85
2017-06-05T21:18:34.626Z,1001.84
2017-06-05T21:19:36.342Z,1001.86
2017-06-05T21:20:37.956Z,1001.82
2017-06-05T21:21:39.602Z,1001.79
2017-06-05T21:22:41.170Z,1001.80
2017-06-05T21:23:43.401Z,1001.74
2017-06-05T21:24:45.120Z,1001.77
2017-06-05T21:25:46.762Z,1001.70
2017-06-05T21:26:48.502Z,1001.74
2017-06-05T21:27:50.138Z,1001.67
2017-06-05T21:28:51.773Z,1001.68
2017-06-05T21:29:53.421Z,1001.67
2017-06-05T21:30:55.036Z,1001.66
2017-06-05T21:31:56.730Z,1001.62
2017-06-05T21:33:38.209Z,1001.36
2017-06-05T21:34:39.817Z,1001.53
2017-06-05T21:35:41.446Z,1001.63
2017-06-05T21:36:43.109Z,1001.59
2017-06-05T21:37:44.703Z,1001.59
2017-06-05T21:38:46.380Z,1001.59
2017-06-05T21:39:48.007Z,1001.59
2017-06-05T21:40:49.608Z,1001.55
2017-06-05T21:41:51.203Z,1001.53
2017-06-05T21:42:52.802Z,1001.54
2017-06-05T21:43:54.479Z,1001.51
2017-06-05T21:44:56.108Z,1001.54
2017-06-05T21:45:57.745Z,1001.52
2017-06-05T21:46:59.364Z,1001.48
2017-06-05T21:48:01.002Z,1001.44
2017-06-05T21:49:02.660Z,1001.46
2017-06-05T21:50:04.303Z,1001.41
2017-06-05T21:51:05.958Z,1001.43
2017-06-05T21:52:07.597Z,1001.38
2017-06-05T21:53:09.198Z,1001.36
2017-06-05T21:54:10.842Z,1001.28
2017-06-05T21:55:12.444Z,1001.30
2017-06-05T21:56:14.042Z,1001.28
2017-06-05T21:57:15.710Z,1001.25
2017-06-05T21:58:17.290Z,1001.26
2017-06-05T21:59:18.943Z,1001.23
2017-06-05T22:00:20.571Z,1001.22
2017-06-05T22:01:22.204Z,1001.14
2017-06-05T22:02:23.873Z,1001.16
2017-06-05T22:03:25.484Z,1001.16
2017-06-05T22:04:27.145Z,1001.12
2017-06-05T22:05:28.774Z,1001.12
2017-06-05T22:06:30.403Z,1001.12
2017-06-05T22:07:32.185Z,1001.10
2017-06-05T22:08:33.888Z,1001.10
2017-06-05T22:09:36.527Z,1001.07
2017-06-05T22:10:38.219Z,1001.07
2017-06-05T22:11:39.886Z,1001.08
2017-06-05T22:12:41.475Z,1001.01
2017-06-05T22:13:43.213Z,1000.97
2017-06-05T22:14:45.079Z,1000.95
2017-06-05T22:15:48.006Z,1000.94
2017-06-05T22:16:49.659Z,1000.91
2017-06-05T22:17:51.275Z,1000.90
2017-06-05T22:18:52.940Z,1000.90
2017-06-05T22:19:54.600Z,1000.87
2017-06-05T22:20:56.277Z,1000.85
2017-06-05T22:21:57.918Z,1000.83
2017-06-05T22:22:59.542Z,1000.83
2017-06-05T22:24:40.650Z,1000.63
2017-06-05T22:26:21.781Z,1000.41
2017-06-05T22:27:23.392Z,1000.63
2017-06-05T22:28:25.032Z,1000.72
2017-06-05T22:29:26.744Z,1000.81
2017-06-05T22:30:28.432Z,1000.74
2017-06-05T22:31:30.128Z,1000.76
2017-06-05T22:32:31.777Z,1000.73
2017-06-05T22:33:33.482Z,1000.66
2017-06-05T22:34:35.211Z,1000.64
2017-06-05T22:35:36.881Z,1000.63
2017-06-05T22:36:38.546Z,1000.64
2017-06-05T22:37:40.251Z,1000.61
2017-06-05T22:38:41.916Z,1000.60
2017-06-05T22:39:43.624Z,1000.61
2017-06-05T22:40:45.346Z,1000.61
2017-06-05T22:41:46.999Z,1000.61
2017-06-05T22:42:48.614Z,1000.56
2017-06-05T22:43:50.208Z,1000.53
2017-06-05T22:44:51.841Z,1000.52
2017-06-05T22:45:53.535Z,1000.55
2017-06-05T22:46:55.163Z,1000.54
2017-06-05T22:47:56.798Z,1000.49
2017-06-05T22:48:58.410Z,1000.52
2017-06-05T22:50:00.019Z,1000.49
2017-06-05T22:51:01.666Z,1000.49
2017-06-05T22:52:03.281Z,1000.44
2017-06-05T22:53:04.954Z,1000.40
2017-06-05T22:54:06.679Z,1000.43
2017-06-05T22:55:08.309Z,1000.44
2017-06-05T22:56:09.956Z,1000.38
2017-06-05T22:57:11.568Z,1000.38
2017-06-05T22:58:13.216Z,1000.34
2017-06-05T22:59:14.870Z,1000.32
2017-06-05T23:00:16.511Z,1000.33
2017-06-05T23:01:18.142Z,1000.35
2017-06-05T23:02:19.756Z,1000.29
2017-06-05T23:03:21.405Z,1000.27
2017-06-05T23:04:23.075Z,1000.26
2017-06-05T23:05:24.690Z,1000.25
2017-06-05T23:06:26.335Z,1000.29
2017-06-05T23:07:27.969Z,1000.21
2017-06-05T23:08:29.613Z,1000.20
2017-06-05T23:09:31.574Z,1000.20
2017-06-05T23:10:33.243Z,1000.20
2017-06-05T23:11:34.878Z,1000.17
2017-06-05T23:12:36.511Z,1000.14
2017-06-05T23:13:38.139Z,1000.14
2017-06-05T23:14:39.850Z,1000.12
2017-06-05T23:16:21.024Z,999.93
2017-06-05T23:18:02.703Z,999.75
2017-06-05T23:19:04.323Z,999.92
2017-06-05T23:20:05.987Z,1000.03
2017-06-05T23:21:07.599Z,1000.03
2017-06-05T23:22:09.188Z,1000.01
2017-06-05T23:23:10.823Z,1000.03
2017-06-05T23:24:12.463Z,1000.00
2017-06-05T23:25:14.101Z,1000.00
2017-06-05T23:26:15.697Z,999.94
2017-06-05T23:27:17.361Z,999.94
2017-06-05T23:28:18.959Z,999.93
2017-06-05T23:29:20.594Z,999.91
2017-06-05T23:30:22.177Z,999.91
2017-06-05T23:31:23.775Z,999.89
2017-06-05T23:32:25.427Z,999.88
2017-06-05T23:33:27.039Z,999.90
2017-06-05T23:34:28.681Z,999.85
2017-06-05T23:35:30.319Z,999.81
2017-06-05T23:36:31.885Z,999.84
2017-06-05T23:37:33.516Z,999.81
2017-06-05T23:38:35.127Z,999.84
2017-06-05T23:39:36.780Z,999.88
2017-06-05T23:40:38.391Z,999.86
2017-06-05T23:41:40.016Z,999.77
2017-06-05T23:42:41.626Z,999.77
2017-06-05T23:43:43.241Z,999.77
2017-06-05T23:44:44.918Z,999.76
2017-06-05T23:45:46.545Z,999.80
2017-06-05T23:46:48.143Z,999.73
2017-06-05T23:47:49.771Z,999.71
2017-06-05T23:48:52.227Z,999.74
2017-06-05T23:49:53.903Z,999.73
2017-06-05T23:50:55.495Z,999.72
2017-06-05T23:51:57.101Z,999.71
2017-06-05T23:52:58.744Z,999.69
2017-06-05T23:54:00.343Z,999.66
2017-06-05T23:55:02.031Z,999.68
2017-06-05T23:56:03.665Z,999.67
2017-06-05T23:57:05.302Z,999.66
2017-06-05T23:58:06.942Z,999.64
2017-06-05T23:59:08.584Z,999.62
